Time;durP1;ratioP1;P1;durP2;ratioP2;P2;SDS_P1;SDS_P2;PMS_P1;PMS_P2;Temp;Humidity;BMP_temperature;BMP_pressure;BME280_temperature;BME280_humidity;BME280_pressure;Samples;Min_cycle;Max_cycle;Signal;HPM_P1;HPM_P2
2022/12/27 00:00:32;;;;;;;;;5.00;5.00;;;;;-146.50;100.00;59256.41;5090037;27;45353;-75
2022/12/27 00:02:57;;;;;;;;;5.00;3.75;;;;;-146.50;100.00;59256.41;5087069;27;45454;-76
2022/12/27 00:05:22;;;;;;;;;5.00;4.00;;;;;-146.50;100.00;59256.41;5092450;27;45494;-75
2022/12/27 00:07:48;;;;;;;;;2.00;2.00;;;;;-146.50;100.00;59256.41;5080496;27;45506;-75
2022/12/27 00:10:13;;;;;;;;;5.75;4.00;;;;;-146.50;100.00;59256.41;5092994;27;45408;-75
2022/12/27 00:12:39;;;;;;;;;4.75;3.50;;;;;-146.50;100.00;59256.41;5084111;27;45343;-76
2022/12/27 00:15:05;;;;;;;;;5.00;5.00;;;;;-146.50;100.00;59256.41;5086123;27;45488;-76
2022/12/27 00:17:30;;;;;;;;;3.00;2.00;;;;;-146.50;100.00;59256.41;5091393;27;45336;-76
2022/12/27 00:19:55;;;;;;;;;4.00;4.00;;;;;-146.50;100.00;59256.41;5078804;27;45333;-75
2022/12/27 00:22:21;;;;;;;;;3.25;3.25;;;;;-146.50;100.00;59256.41;5090659;27;45558;-76
2022/12/27 00:24:47;;;;;;;;;3.25;3.25;;;;;-146.50;100.00;59256.41;5084865;27;45375;-76
2022/12/27 00:27:12;;;;;;;;;4.75;3.00;;;;;-146.50;100.00;59256.41;5083745;27;45524;-77
2022/12/27 00:29:39;;;;;;;;;3.00;3.00;;;;;-146.50;100.00;59256.41;5091773;27;46078;-76
2022/12/27 00:32:04;;;;;;;;;4.00;3.75;;;;;-146.50;100.00;59256.41;5079275;27;45448;-76
2022/12/27 00:34:30;;;;;;;;;5.00;3.50;;;;;-146.50;100.00;59256.41;5089579;27;45350;-77
2022/12/27 00:36:55;;;;;;;;;4.50;4.50;;;;;-146.50;100.00;59256.41;5073576;27;45701;-77
2022/12/27 00:39:20;;;;;;;;;3.25;3.25;;;;;-146.50;100.00;59256.41;5089274;27;45717;-76
2022/12/27 00:41:46;;;;;;;;;3.00;3.00;;;;;-146.50;100.00;59256.41;5078797;27;45441;-77
2022/12/27 00:44:11;;;;;;;;;2.50;2.50;;;;;-146.50;100.00;59256.41;5083893;27;45226;-77
2022/12/27 00:46:36;;;;;;;;;4.00;2.50;;;;;-146.50;100.00;59256.41;5082036;27;45255;-76
2022/12/27 00:49:02;;;;;;;;;3.50;3.00;;;;;-146.50;100.00;59256.41;5084970;27;45463;-77
2022/12/27 00:51:27;;;;;;;;;4.00;2.50;;;;;-146.50;100.00;59256.41;5089093;27;45558;-77
2022/12/27 00:53:53;;;;;;;;;2.75;2.25;;;;;-146.50;100.00;59256.41;5078894;27;45461;-76
2022/12/27 00:56:25;;;;;;;;;2.00;1.50;;;;;-146.50;100.00;59256.41;5090561;27;45342;-76
2022/12/27 00:59:01;;;;;;;;;5.00;4.00;;;;;-146.50;100.00;59256.41;5085146;27;47294;-77
2022/12/27 01:01:29;;;;;;;;;4.00;2.50;;;;;-146.50;100.00;59256.41;5077915;27;45429;-76
2022/12/27 01:03:56;;;;;;;;;3.00;3.00;;;;;-146.50;100.00;59256.41;5088095;27;45545;-77
2022/12/27 01:06:24;;;;;;;;;4.00;4.00;;;;;-146.50;100.00;59256.41;5090644;27;45620;-77
2022/12/27 01:08:50;;;;;;;;;2.25;2.25;;;;;-146.50;100.00;59256.41;5084337;27;45402;-77
2022/12/27 01:11:17;;;;;;;;;1.25;1.25;;;;;-146.50;100.00;59256.41;5082624;27;45424;-77
2022/12/27 01:13:43;;;;;;;;;3.00;3.00;;;;;-146.50;100.00;59256.41;5091779;27;45440;-73
2022/12/27 01:16:15;;;;;;;;;2.25;1.50;;;;;-146.50;100.00;59256.41;5067260;27;45465;-77
2022/12/27 01:18:41;;;;;;;;;2.25;2.00;;;;;-146.50;100.00;59256.41;5082172;27;45361;-74
2022/12/27 01:21:08;;;;;;;;;3.75;2.75;;;;;-146.50;100.00;59256.41;5071757;28;45319;-76
2022/12/27 01:23:34;;;;;;;;;3.00;3.00;;;;;-146.50;100.00;59256.41;5090625;27;45362;-77
2022/12/27 01:26:01;;;;;;;;;4.00;2.50;;;;;-146.50;100.00;59256.41;5078683;27;45646;-77
2022/12/27 01:28:27;;;;;;;;;2.25;2.00;;;;;-146.50;100.00;59256.41;5088224;27;47399;-76
2022/12/27 01:30:52;;;;;;;;;1.50;1.50;;;;;-146.50;100.00;59256.41;5085339;27;45448;-77
2022/12/27 01:33:18;;;;;;;;;2.00;2.00;;;;;-146.50;100.00;59256.41;5088036;27;45406;-77
2022/12/27 01:35:43;;;;;;;;;1.75;1.75;;;;;-146.50;100.00;59256.41;5078244;27;45398;-76
2022/12/27 01:38:09;;;;;;;;;3.00;1.50;;;;;-146.50;100.00;59256.41;5061451;27;45371;-77
2022/12/27 01:40:35;;;;;;;;;2.75;2.75;;;;;-146.50;100.00;59256.41;5089731;27;45424;-76
2022/12/27 01:43:01;;;;;;;;;2.25;2.25;;;;;-146.50;100.00;59256.41;5081369;27;45349;-74
2022/12/27 01:45:31;;;;;;;;;3.00;3.00;;;;;-146.50;100.00;59256.41;5073347;27;45329;-74
2022/12/27 01:48:13;;;;;;;;;7.00;2.75;;;;;-146.50;100.00;59256.41;5075309;28;45378;-74
2022/12/27 01:50:47;;;;;;;;;4.50;2.75;;;;;-146.50;100.00;59256.41;5075219;28;45372;-75
2022/12/27 01:53:44;;;;;;;;;2.00;2.00;;;;;-146.50;100.00;59256.41;5074429;28;45431;-75
2022/12/27 01:56:17;;;;;;;;;3.75;3.00;;;;;-146.50;100.00;59256.41;5063086;27;45439;-76
2022/12/27 01:58:46;;;;;;;;;3.25;1.75;;;;;-146.50;100.00;59256.41;5075042;27;47233;-77
2022/12/27 02:01:16;;;;;;;;;4.00;4.00;;;;;-146.50;100.00;59256.41;5074914;27;45504;-74
2022/12/27 02:03:46;;;;;;;;;5.00;3.00;;;;;-146.50;100.00;59256.41;5073845;28;45385;-74
2022/12/27 02:06:12;;;;;;;;;2.00;2.00;;;;;-146.50;100.00;59256.41;5075034;27;45706;-76
2022/12/27 02:09:09;;;;;;;;;3.00;2.00;;;;;-146.50;100.00;59256.41;5074545;27;45886;-77
2022/12/27 02:11:50;;;;;;;;;1.00;1.00;;;;;-146.50;100.00;59256.41;5074954;27;45492;-76
2022/12/27 02:14:27;;;;;;;;;3.50;3.50;;;;;-146.50;100.00;59256.41;5074998;27;45482;-77
2022/12/27 02:16:54;;;;;;;;;5.00;3.50;;;;;-146.50;100.00;59256.41;5075059;27;45428;-76
2022/12/27 02:19:37;;;;;;;;;2.75;2.00;;;;;-146.50;100.00;59256.41;5074498;27;45349;-76
2022/12/27 02:22:05;;;;;;;;;1.50;1.50;;;;;-146.50;100.00;59256.41;5074801;27;45587;-76
2022/12/27 02:24:55;;;;;;;;;2.50;2.50;;;;;-146.50;100.00;59256.41;5075085;28;45324;-76
2022/12/27 02:27:51;;;;;;;;;2.75;2.25;;;;;-146.50;100.00;59256.41;5073460;28;45515;-76
2022/12/27 02:30:16;;;;;;;;;1.75;1.00;;;;;-146.50;100.00;59256.41;5074603;28;46701;-77
2022/12/27 02:33:04;;;;;;;;;3.25;3.00;;;;;-146.50;100.00;59256.41;5074182;27;45385;-76
2022/12/27 02:35:42;;;;;;;;;4.00;3.50;;;;;-146.50;100.00;59256.41;5074932;27;45396;-76
2022/12/27 02:38:17;;;;;;;;;3.00;3.00;;;;;-146.50;100.00;59256.41;5074820;27;45554;-75
2022/12/27 02:53:02;;;;;;;;;2.00;2.00;;;;;-146.50;100.00;59256.41;5074386;28;45644;-73
2022/12/27 02:59:15;;;;;;;;;2.00;1.00;;;;;-146.50;100.00;59256.41;5074687;28;45296;-75
2022/12/27 03:04:59;;;;;;;;;4.00;3.00;;;;;-146.50;100.00;59256.41;5074067;28;45405;-75
2022/12/27 03:07:28;;;;;;;;;1.75;1.75;;;;;-146.50;100.00;59256.41;5076470;27;45349;-76
2022/12/27 03:16:40;;;;;;;;;4.75;3.75;;;;;-146.50;100.00;59256.41;5077527;28;45799;-76
2022/12/27 03:25:26;;;;;;;;;1.00;1.00;;;;;-146.50;100.00;59256.41;5077553;27;45457;-75
2022/12/27 03:27:42;;;;;;;;;2.00;2.00;;;;;-146.50;100.00;59256.41;5077259;28;45523;-75
2022/12/27 03:33:14;;;;;;;;;2.75;2.75;;;;;-146.50;100.00;59256.41;5077818;28;45345;-75
2022/12/27 03:39:15;;;;;;;;;5.00;2.00;;;;;-146.50;100.00;59256.41;5077849;28;45491;-75
2022/12/27 03:44:37;;;;;;;;;2.50;2.00;;;;;-146.50;100.00;59256.41;5077493;28;45430;-75
2022/12/27 03:47:23;;;;;;;;;2.00;2.00;;;;;-146.50;100.00;59256.41;5077361;28;45626;-75
2022/12/27 03:49:57;;;;;;;;;2.25;2.00;;;;;-146.50;100.00;59256.41;5076857;27;45386;-75
2022/12/27 03:52:30;;;;;;;;;3.75;2.50;;;;;-146.50;100.00;59256.41;5077134;27;45437;-75
2022/12/27 03:54:57;;;;;;;;;7.00;2.25;;;;;-146.50;100.00;59256.41;5077069;28;45440;-76
2022/12/27 03:57:25;;;;;;;;;4.25;2.50;;;;;-146.50;100.00;59256.41;5076951;28;45430;-75
2022/12/27 03:59:51;;;;;;;;;4.00;2.50;;;;;-146.50;100.00;59256.41;5075835;28;45698;-75
2022/12/27 04:02:16;;;;;;;;;2.75;2.00;;;;;-146.50;100.00;59256.41;5076882;27;45500;-75
2022/12/27 04:04:42;;;;;;;;;3.25;2.00;;;;;-146.50;100.00;59256.41;5074803;28;45456;-76
2022/12/27 04:07:08;;;;;;;;;3.00;2.00;;;;;-146.50;100.00;59256.41;5076564;27;45467;-76
2022/12/27 04:36:54;;;;;;;;;4.25;3.00;;;;;-146.50;100.00;59256.41;5078690;28;45365;-75
2022/12/27 04:39:19;;;;;;;;;1.75;1.75;;;;;-146.50;100.00;59256.41;5076570;27;45474;-76
2022/12/27 04:55:29;;;;;;;;;1.75;1.00;;;;;-146.50;100.00;59256.41;5076378;28;45450;-76
2022/12/27 04:57:56;;;;;;;;;3.00;3.00;;;;;-146.50;100.00;59256.41;5076457;28;45420;-76
2022/12/27 05:03:18;;;;;;;;;3.75;2.00;;;;;-146.50;100.00;59256.41;5075215;28;45306;-76
2022/12/27 05:05:45;;;;;;;;;3.50;2.50;;;;;-146.50;100.00;59256.41;5075571;27;45386;-76
2022/12/27 05:13:59;;;;;;;;;3.50;2.75;;;;;-146.50;100.00;59256.41;5074502;28;45453;-76
2022/12/27 05:16:28;;;;;;;;;0.50;0.50;;;;;-146.50;100.00;59256.41;5075236;27;45387;-76
2022/12/27 05:18:54;;;;;;;;;3.50;3.50;;;;;-146.50;100.00;59256.41;5076092;27;45375;-76
2022/12/27 05:21:19;;;;;;;;;4.00;4.00;;;;;-146.50;100.00;59256.41;5075542;27;45416;-76
2022/12/27 05:26:29;;;;;;;;;4.50;3.50;;;;;-146.50;100.00;59256.41;5075586;28;45456;-76
2022/12/27 05:28:57;;;;;;;;;7.00;3.00;;;;;-146.50;100.00;59256.41;5074987;27;45570;-76
2022/12/27 05:31:24;;;;;;;;;3.00;3.00;;;;;-146.50;100.00;59256.41;5075422;27;45362;-76
2022/12/27 05:33:51;;;;;;;;;3.25;3.25;;;;;-146.50;100.00;59256.41;5075321;27;46969;-76
2022/12/27 05:36:17;;;;;;;;;5.00;3.25;;;;;-146.50;100.00;59256.41;5075540;27;45377;-75
2022/12/27 05:38:43;;;;;;;;;3.25;3.00;;;;;-146.50;100.00;59256.41;5075611;27;45372;-77
2022/12/27 05:41:08;;;;;;;;;6.25;4.00;;;;;-146.50;100.00;59256.41;5075383;28;45309;-77
2022/12/27 05:43:34;;;;;;;;;5.50;4.00;;;;;-146.50;100.00;59256.41;5075221;27;46008;-76
2022/12/27 05:46:11;;;;;;;;;3.00;3.00;;;;;-146.50;100.00;59256.41;5074940;28;45411;-77
2022/12/27 05:48:36;;;;;;;;;2.75;2.75;;;;;-146.50;100.00;59256.41;5074053;28;45505;-75
2022/12/27 05:51:10;;;;;;;;;2.00;2.00;;;;;-146.50;100.00;59256.41;5075448;27;45453;-75
2022/12/27 05:53:35;;;;;;;;;5.00;3.50;;;;;-146.50;100.00;59256.41;5075209;28;46283;-76
2022/12/27 05:56:01;;;;;;;;;2.00;2.00;;;;;-146.50;100.00;59256.41;5075053;28;45343;-76
2022/12/27 05:58:26;;;;;;;;;4.00;4.00;;;;;-146.50;100.00;59256.41;5075505;27;45546;-76
2022/12/27 06:00:52;;;;;;;;;2.50;2.50;;;;;-146.50;100.00;59256.41;5075219;27;45428;-76
2022/12/27 06:03:18;;;;;;;;;4.00;3.00;;;;;-146.50;100.00;59256.41;5074787;28;46019;-77
2022/12/27 06:05:43;;;;;;;;;5.00;4.00;;;;;-146.50;100.00;59256.41;5075263;27;45477;-75
2022/12/27 06:08:09;;;;;;;;;1.75;1.25;;;;;-146.50;100.00;59256.41;5075396;27;45683;-76
2022/12/27 06:10:34;;;;;;;;;2.25;2.25;;;;;-146.50;100.00;59256.41;5073847;28;45381;-75
2022/12/27 06:13:01;;;;;;;;;3.00;2.00;;;;;-146.50;100.00;59256.41;5074758;28;45443;-77
2022/12/27 06:15:26;;;;;;;;;2.00;2.00;;;;;-146.50;100.00;59256.41;5090641;27;45317;-75
2022/12/27 06:17:52;;;;;;;;;3.00;3.00;;;;;-146.50;100.00;59256.41;5075038;27;45481;-76
2022/12/27 06:20:18;;;;;;;;;3.75;2.00;;;;;-146.50;100.00;59256.41;5056533;28;45702;-76
2022/12/27 06:22:43;;;;;;;;;2.75;2.75;;;;;-146.50;100.00;59256.41;5075004;28;45607;-76
2022/12/27 06:25:09;;;;;;;;;3.00;3.00;;;;;-146.50;100.00;59256.41;5074822;27;45643;-76
2022/12/27 06:27:34;;;;;;;;;3.25;2.50;;;;;-146.50;100.00;59256.41;5066315;27;45358;-76
2022/12/27 06:29:59;;;;;;;;;1.50;1.50;;;;;-146.50;100.00;59256.41;5070375;28;45287;-73
2022/12/27 06:32:25;;;;;;;;;2.00;2.00;;;;;-146.50;100.00;59256.41;5074615;28;46580;-76
2022/12/27 06:34:50;;;;;;;;;3.75;2.00;;;;;-146.50;100.00;59256.41;5074792;27;45612;-76
2022/12/27 06:37:16;;;;;;;;;3.25;3.25;;;;;-146.50;100.00;59256.41;5074674;27;45399;-76
2022/12/27 06:39:42;;;;;;;;;2.75;2.75;;;;;-146.50;100.00;59256.41;5074294;27;45466;-76
2022/12/27 06:42:08;;;;;;;;;4.00;3.00;;;;;-146.50;100.00;59256.41;5078087;27;45841;-75
2022/12/27 06:44:33;;;;;;;;;4.00;2.50;;;;;-146.50;100.00;59256.41;5078073;27;45529;-75
2022/12/27 06:46:58;;;;;;;;;3.50;2.00;;;;;-146.50;100.00;59256.41;5076956;28;45491;-76
2022/12/27 06:49:24;;;;;;;;;5.00;1.75;;;;;-146.50;100.00;59256.41;5078922;28;45388;-74
2022/12/27 06:51:50;;;;;;;;;3.75;3.75;;;;;-146.50;100.00;59256.41;5078259;28;47137;-74
2022/12/27 06:54:15;;;;;;;;;8.00;3.75;;;;;-146.50;100.00;59256.41;5078028;28;45428;-75
2022/12/27 06:56:40;;;;;;;;;3.00;3.00;;;;;-146.50;100.00;59256.41;5077754;28;45444;-76
2022/12/27 06:59:07;;;;;;;;;0.75;0.75;;;;;-146.50;100.00;59256.41;5078268;27;45479;-75
2022/12/27 07:01:32;;;;;;;;;0.50;0.50;;;;;-146.50;100.00;59256.41;5076835;27;46164;-75
2022/12/27 07:03:59;;;;;;;;;2.50;2.50;;;;;-146.50;100.00;59256.41;5078444;27;45211;-76
2022/12/27 07:06:26;;;;;;;;;4.00;3.00;;;;;-146.50;100.00;59256.41;5079181;28;45313;-75
2022/12/27 07:08:52;;;;;;;;;3.00;3.00;;;;;-146.50;100.00;59256.41;5078483;28;45298;-76
2022/12/27 07:11:18;;;;;;;;;5.25;4.00;;;;;-146.50;100.00;59256.41;5076819;28;45432;-75
2022/12/27 07:13:55;;;;;;;;;3.75;3.75;;;;;-146.50;100.00;59256.41;5077459;27;45385;-75
2022/12/27 07:16:24;;;;;;;;;4.00;4.00;;;;;-146.50;100.00;59256.41;5077914;27;45376;-75
2022/12/27 07:18:49;;;;;;;;;5.00;5.00;;;;;-146.50;100.00;59256.41;5077687;27;45592;-75
2022/12/27 07:21:18;;;;;;;;;7.75;6.75;;;;;-146.50;100.00;59256.41;5076806;27;47002;-75
2022/12/27 07:23:44;;;;;;;;;4.25;4.25;;;;;-146.50;100.00;59256.41;5057303;28;45334;-75
2022/12/27 07:26:15;;;;;;;;;8.75;7.00;;;;;-146.50;100.00;59256.41;5056252;28;45459;-75
2022/12/27 07:28:41;;;;;;;;;7.00;4.25;;;;;-146.50;100.00;59256.41;5057516;28;45663;-75
2022/12/27 07:31:11;;;;;;;;;4.75;4.00;;;;;-146.50;100.00;59256.41;5058523;28;45409;-76
2022/12/27 07:33:38;;;;;;;;;7.75;3.75;;;;;-146.50;100.00;59256.41;5077437;27;45356;-75
2022/12/27 07:36:06;;;;;;;;;4.50;4.50;;;;;-146.50;100.00;59256.41;5077614;27;45284;-76
2022/12/27 07:38:31;;;;;;;;;5.50;5.00;;;;;-146.50;100.00;59256.41;5077466;28;45309;-75
2022/12/27 07:40:58;;;;;;;;;3.25;3.25;;;;;-146.50;100.00;59256.41;5077377;27;46061;-75
2022/12/27 07:43:24;;;;;;;;;6.00;3.75;;;;;-146.50;100.00;59256.41;5093243;27;45761;-76
2022/12/27 07:45:50;;;;;;;;;7.75;6.75;;;;;-146.50;100.00;59256.41;5072605;28;45407;-76
2022/12/27 07:48:15;;;;;;;;;3.75;3.75;;;;;-146.50;100.00;59256.41;5068124;28;45285;-76
2022/12/27 07:50:41;;;;;;;;;3.50;3.50;;;;;-146.50;100.00;59256.41;5075691;27;45462;-75
2022/12/27 07:53:06;;;;;;;;;6.00;6.00;;;;;-146.50;100.00;59256.41;5076474;27;45370;-75
2022/12/27 07:55:31;;;;;;;;;7.00;7.00;;;;;-146.50;100.00;59256.41;5077146;27;45692;-75
2022/12/27 07:57:57;;;;;;;;;8.00;4.50;;;;;-146.50;100.00;59256.41;5077362;27;45439;-75
2022/12/27 08:00:22;;;;;;;;;8.25;7.00;;;;;-146.50;100.00;59256.41;5076516;27;46317;-75
2022/12/27 08:02:48;;;;;;;;;4.25;4.25;;;;;-146.50;100.00;59256.41;5076940;27;45402;-75
2022/12/27 08:05:13;;;;;;;;;8.25;4.00;;;;;-146.50;100.00;59256.41;5076865;27;45895;-76
2022/12/27 08:07:39;;;;;;;;;3.00;3.00;;;;;-146.50;100.00;59256.41;5077269;27;45333;-76
2022/12/27 08:10:05;;;;;;;;;4.00;4.00;;;;;-146.50;100.00;59256.41;5076803;27;47188;-75
2022/12/27 08:12:31;;;;;;;;;3.00;3.00;;;;;-146.50;100.00;59256.41;5076690;27;45615;-76
2022/12/27 08:14:56;;;;;;;;;4.00;3.00;;;;;-146.50;100.00;59256.41;5076894;27;45481;-75
2022/12/27 08:17:26;;;;;;;;;5.00;3.00;;;;;-146.50;100.00;59256.41;5076940;27;45492;-75
2022/12/27 08:19:52;;;;;;;;;3.75;2.00;;;;;-146.50;100.00;59256.41;5076502;27;46155;-75
2022/12/27 08:22:17;;;;;;;;;7.00;4.50;;;;;-146.50;100.00;59256.41;5074730;27;45555;-75
2022/12/27 08:24:42;;;;;;;;;4.00;4.00;;;;;-146.50;100.00;59256.41;5075865;28;45290;-75
2022/12/27 08:27:09;;;;;;;;;4.25;4.00;;;;;-146.50;100.00;59256.41;5076990;27;45270;-75
2022/12/27 08:29:34;;;;;;;;;25.50;23.25;;;;;-146.50;100.00;59256.41;5075196;28;46378;-76
2022/12/27 08:32:00;;;;;;;;;64.00;50.50;;;;;-146.50;100.00;59256.41;5076002;27;45372;-75
2022/12/27 08:34:25;;;;;;;;;31.75;28.75;;;;;-146.50;100.00;59256.41;5066834;28;45681;-75
2022/12/27 08:36:51;;;;;;;;;30.00;25.50;;;;;-146.50;100.00;59256.41;5056417;28;45543;-75
2022/12/27 08:39:17;;;;;;;;;25.75;24.25;;;;;-146.50;100.00;59256.41;5054679;28;48291;-75
2022/12/27 08:41:43;;;;;;;;;19.50;17.00;;;;;-146.50;100.00;59256.41;5054854;28;45686;-75
2022/12/27 08:44:09;;;;;;;;;12.25;11.00;;;;;-146.50;100.00;59256.41;5056187;28;45407;-76
2022/12/27 08:46:35;;;;;;;;;8.25;8.25;;;;;-146.50;100.00;59256.41;5074262;28;45472;-75
2022/12/27 08:49:00;;;;;;;;;9.00;7.00;;;;;-146.50;100.00;59256.41;5075956;28;46668;-76
2022/12/27 08:51:27;;;;;;;;;4.50;4.50;;;;;-146.50;100.00;59256.41;5076557;27;45302;-76
2022/12/27 08:53:52;;;;;;;;;11.50;9.25;;;;;-146.50;100.00;59256.41;5072072;27;45543;-76
2022/12/27 08:56:18;;;;;;;;;9.50;8.50;;;;;-146.50;100.00;59256.41;5076240;27;45402;-76
2022/12/27 08:58:43;;;;;;;;;12.00;11.25;;;;;-146.50;100.00;59256.41;5074875;28;45509;-76
2022/12/27 09:01:09;;;;;;;;;15.75;12.25;;;;;-146.50;100.00;59256.41;5075854;28;45360;-76
2022/12/27 09:03:35;;;;;;;;;7.75;5.00;;;;;-146.50;100.00;59256.41;5074853;27;45409;-75
2022/12/27 09:06:11;;;;;;;;;7.25;6.75;;;;;-146.50;100.00;59256.41;5076065;27;45484;-76
2022/12/27 09:08:37;;;;;;;;;4.50;4.00;;;;;-146.50;100.00;59256.41;5075768;27;47155;-75
2022/12/27 09:11:24;;;;;;;;;8.75;4.00;;;;;-146.50;100.00;59256.41;5075943;28;45327;-75
2022/12/27 09:13:49;;;;;;;;;7.75;5.50;;;;;-146.50;100.00;59256.41;5075973;27;45368;-75
2022/12/27 09:16:18;;;;;;;;;7.00;7.00;;;;;-146.50;100.00;59256.41;5076003;27;45578;-75
2022/12/27 09:18:47;;;;;;;;;8.75;6.50;;;;;-146.50;100.00;59256.41;5075929;27;47273;-75
2022/12/27 09:21:15;;;;;;;;;5.25;5.25;;;;;-146.50;100.00;59256.41;5075474;27;45387;-72
2022/12/27 09:23:41;;;;;;;;;4.00;4.00;;;;;-146.50;100.00;59256.41;5074937;27;45414;-73
2022/12/27 09:26:13;;;;;;;;;3.00;3.00;;;;;-146.50;100.00;59256.41;5108731;27;45478;-73
2022/12/27 09:28:39;;;;;;;;;5.25;3.25;;;;;-146.50;100.00;59256.41;5074476;27;45576;-72
2022/12/27 09:31:04;;;;;;;;;4.50;3.00;;;;;-146.50;100.00;59256.41;5075726;27;45936;-72
2022/12/27 09:33:31;;;;;;;;;9.50;5.00;;;;;-146.50;100.00;59256.41;5075961;28;45303;-72
2022/12/27 09:36:17;;;;;;;;;6.25;3.00;;;;;-146.50;100.00;59256.41;5075533;28;45310;-72
2022/12/27 09:38:44;;;;;;;;;5.25;4.25;;;;;-146.50;100.00;59256.41;5074521;27;46353;-73
2022/12/27 09:41:12;;;;;;;;;5.50;4.00;;;;;-146.50;100.00;59256.41;5075244;27;45495;-73
2022/12/27 09:43:47;;;;;;;;;6.00;3.00;;;;;-146.50;100.00;59256.41;5075718;27;45388;-73
2022/12/27 09:46:18;;;;;;;;;4.25;3.50;;;;;-146.50;100.00;59256.41;5091096;27;45454;-73
2022/12/27 09:48:44;;;;;;;;;4.25;4.25;;;;;-146.50;100.00;59256.41;5075406;28;45307;-73
2022/12/27 09:51:09;;;;;;;;;4.75;3.25;;;;;-146.50;100.00;59256.41;5074930;28;45401;-73
2022/12/27 09:54:10;;;;;;;;;6.00;6.00;;;;;-146.50;100.00;59256.41;5075523;27;45474;-73
2022/12/27 09:56:35;;;;;;;;;3.75;3.00;;;;;-146.50;100.00;59256.41;5063020;28;45491;-73
2022/12/27 09:59:39;;;;;;;;;7.50;3.25;;;;;-146.50;100.00;59256.41;5073131;28;46313;-73
2022/12/27 10:02:20;;;;;;;;;2.00;2.00;;;;;-146.50;100.00;59256.41;5052629;28;45466;-73
2022/12/27 10:04:45;;;;;;;;;5.00;4.00;;;;;-146.50;100.00;59256.41;5052516;28;45448;-72
2022/12/27 10:07:17;;;;;;;;;4.00;4.00;;;;;-146.50;100.00;59256.41;5052429;28;45462;-72
2022/12/27 10:09:54;;;;;;;;;0.75;0.75;;;;;-146.50;100.00;59256.41;5052743;28;46205;-73
2022/12/27 10:12:35;;;;;;;;;4.50;4.00;;;;;-146.50;100.00;59256.41;5052236;28;45327;-73
2022/12/27 10:15:07;;;;;;;;;4.00;3.25;;;;;-146.50;100.00;59256.41;5051689;28;45372;-73
2022/12/27 10:17:32;;;;;;;;;4.25;3.00;;;;;-146.50;100.00;59256.41;5052787;28;45607;-73
2022/12/27 10:20:18;;;;;;;;;6.00;4.00;;;;;-146.50;100.00;59256.41;5032080;28;47391;-73
2022/12/27 10:23:11;;;;;;;;;2.75;2.75;;;;;-146.50;100.00;59256.41;5044233;28;45460;-73
2022/12/27 10:25:38;;;;;;;;;2.00;2.00;;;;;-146.50;100.00;59256.41;5046536;28;45441;-73
2022/12/27 10:28:24;;;;;;;;;4.25;3.75;;;;;-146.50;100.00;59256.41;5053870;28;45399;-73
2022/12/27 10:30:51;;;;;;;;;4.00;3.00;;;;;-146.50;100.00;59256.41;5054244;28;45418;-73
2022/12/27 10:33:26;;;;;;;;;3.00;3.00;;;;;-146.50;100.00;59256.41;5069059;28;45384;-73
2022/12/27 10:35:52;;;;;;;;;4.00;2.50;;;;;-146.50;100.00;59256.41;5076377;27;45349;-75
2022/12/27 10:38:18;;;;;;;;;3.75;2.00;;;;;-146.50;100.00;59256.41;5075134;27;45580;-72
2022/12/27 10:41:08;;;;;;;;;5.25;3.00;;;;;-146.50;100.00;59256.41;5074557;27;45429;-74
2022/12/27 10:43:43;;;;;;;;;5.50;4.00;;;;;-146.50;100.00;59256.41;5074480;28;45438;-74
2022/12/27 10:46:15;;;;;;;;;3.00;3.00;;;;;-146.50;100.00;59256.41;5073861;27;45310;-74
2022/12/27 10:48:53;;;;;;;;;5.00;5.00;;;;;-146.50;100.00;59256.41;5074236;28;45552;-75
2022/12/27 10:51:18;;;;;;;;;3.00;3.00;;;;;-146.50;100.00;59256.41;5074102;27;45455;-74
2022/12/27 10:53:44;;;;;;;;;3.75;2.50;;;;;-146.50;100.00;59256.41;5074399;27;45543;-74
2022/12/27 10:56:15;;;;;;;;;1.75;1.75;;;;;-146.50;100.00;59256.41;5074804;28;45302;-74
2022/12/27 10:58:43;;;;;;;;;3.50;2.00;;;;;-146.50;100.00;59256.41;5062734;27;46003;-75
2022/12/27 11:01:26;;;;;;;;;6.75;4.00;;;;;-146.50;100.00;59256.41;5069213;28;46478;-74
2022/12/27 11:04:09;;;;;;;;;4.25;3.50;;;;;-146.50;100.00;59256.41;5073809;27;45479;-74
2022/12/27 11:06:34;;;;;;;;;2.00;2.00;;;;;-146.50;100.00;59256.41;5074239;27;45471;-74
2022/12/27 11:09:27;;;;;;;;;2.00;2.00;;;;;-146.50;100.00;59256.41;5074567;27;45458;-75
2022/12/27 11:12:12;;;;;;;;;2.00;2.00;;;;;-146.50;100.00;59256.41;5072925;27;46159;-73
2022/12/27 11:14:37;;;;;;;;;5.25;3.00;;;;;-146.50;100.00;59256.41;5073309;28;45341;-72
2022/12/27 11:17:12;;;;;;;;;3.00;2.00;;;;;-146.50;100.00;59256.41;5074386;27;45529;-73
2022/12/27 11:19:46;;;;;;;;;1.33;1.33;;;;;-146.50;100.00;59256.41;5073968;28;45429;-74
2022/12/27 11:22:11;;;;;;;;;1.50;1.50;;;;;-146.50;100.00;59256.41;5073954;28;45392;-74
2022/12/27 11:24:45;;;;;;;;;0.25;0.25;;;;;-146.50;100.00;59256.41;5072505;28;46064;-74
2022/12/27 11:27:22;;;;;;;;;2.25;2.25;;;;;-146.50;100.00;59256.41;5074836;27;45374;-73
2022/12/27 11:29:48;;;;;;;;;1.00;1.00;;;;;-146.50;100.00;59256.41;5076224;27;45433;-74
2022/12/27 11:32:13;;;;;;;;;1.25;1.25;;;;;-146.50;100.00;59256.41;5077230;27;45967;-74
2022/12/27 11:34:44;;;;;;;;;5.25;2.75;;;;;-146.50;100.00;59256.41;5076862;28;45453;-74
2022/12/27 11:37:14;;;;;;;;;4.00;3.00;;;;;-146.50;100.00;59256.41;5076252;28;45342;-74
2022/12/27 11:39:50;;;;;;;;;2.25;2.25;;;;;-146.50;100.00;59256.41;5077423;28;45397;-73
2022/12/27 11:42:32;;;;;;;;;3.50;3.50;;;;;-146.50;100.00;59256.41;5077310;27;45431;-73
2022/12/27 11:45:20;;;;;;;;;4.25;3.00;;;;;-146.50;100.00;59256.41;5077226;27;45302;-73
2022/12/27 11:47:54;;;;;;;;;0.67;0.33;;;;;-146.50;100.00;59256.41;5077001;27;45323;-74
2022/12/27 11:50:26;;;;;;;;;3.00;1.00;;;;;-146.50;100.00;59256.41;5075915;28;45528;-73
2022/12/27 11:53:33;;;;;;;;;2.00;2.00;;;;;-146.50;100.00;59256.41;5077317;27;46279;-73
2022/12/27 11:56:21;;;;;;;;;1.00;1.00;;;;;-146.50;100.00;59256.41;5077400;27;45243;-73
2022/12/27 11:59:24;;;;;;;;;1.00;1.00;;;;;-146.50;100.00;59256.41;5076694;27;45583;-73
2022/12/27 12:02:23;;;;;;;;;1.00;1.00;;;;;-146.50;100.00;59256.41;5065510;28;45382;-73
2022/12/27 12:05:10;;;;;;;;;1.00;1.00;;;;;-146.50;100.00;59256.41;5073587;28;45417;-73
2022/12/27 12:07:36;;;;;;;;;2.00;2.00;;;;;-146.50;100.00;59256.41;5076445;28;45535;-73
2022/12/27 12:10:19;;;;;;;;;2.33;2.33;;;;;-146.50;100.00;59256.41;5076933;28;45361;-73
2022/12/27 12:13:18;;;;;;;;;2.00;1.00;;;;;-146.50;100.00;59256.41;5076892;28;45488;-74
2022/12/27 12:16:25;;;;;;;;;1.33;1.33;;;;;-146.50;100.00;59256.41;5076423;28;47361;-73
2022/12/27 12:19:32;;;;;;;;;1.67;1.67;;;;;-146.50;100.00;59256.41;5076998;28;45543;-73
2022/12/27 12:22:03;;;;;;;;;2.67;2.00;;;;;-146.50;100.00;59256.41;5014206;28;45453;-73
2022/12/27 12:25:01;;;;;;;;;1.00;1.00;;;;;-146.50;100.00;59256.41;5013627;28;45348;-73
2022/12/27 12:27:42;;;;;;;;;0.33;0.33;;;;;-146.50;100.00;59256.41;4938308;28;48219;-73
2022/12/27 12:30:29;;;;;;;;;1.00;1.00;;;;;-146.50;100.00;59256.41;4955017;28;45485;-73
2022/12/27 12:33:13;;;;;;;;;1.00;1.00;;;;;-146.50;100.00;59256.41;4934904;28;45385;-73
2022/12/27 12:36:02;;;;;;;;;1.67;1.67;;;;;-146.50;100.00;59256.41;4935592;28;45449;-73
2022/12/27 12:38:53;;;;;;;;;2.00;2.00;;;;;-146.50;100.00;59256.41;4934952;28;46122;-73
2022/12/27 12:41:31;;;;;;;;;1.00;1.00;;;;;-146.50;100.00;59256.41;4935582;28;45366;-73
2022/12/27 12:44:28;;;;;;;;;0.00;0.00;;;;;-146.50;100.00;59256.41;4944642;28;45606;-73
2022/12/27 12:47:15;;;;;;;;;1.00;1.00;;;;;-146.50;100.00;59256.41;4954905;28;45445;-73
2022/12/27 12:49:46;;;;;;;;;1.00;1.00;;;;;-146.50;100.00;59256.41;4954598;28;46900;-73
2022/12/27 12:52:17;;;;;;;;;0.67;0.67;;;;;-146.50;100.00;59256.41;4954656;28;45658;-73
2022/12/27 12:54:57;;;;;;;;;1.67;1.00;;;;;-146.50;100.00;59256.41;4954706;28;45476;-73
2022/12/27 12:57:28;;;;;;;;;1.33;0.00;;;;;-146.50;100.00;59256.41;4978752;28;45567;-72
2022/12/27 13:00:12;;;;;;;;;0.00;0.00;;;;;-146.50;100.00;59256.41;5013325;28;46201;-73